Time;durP1;ratioP1;P1;durP2;ratioP2;P2;SDS_P1;SDS_P2;PMS_P1;PMS_P2;Temp;Humidity;BMP_temperature;BMP_pressure;BME280_temperature;BME280_humidity;BME280_pressure;Samples;Min_cycle;Max_cycle;Signal;HPM_P1;HPM_P2
2023/07/21 00:02:21;;;;;;;1.80;1.70;;;;;;;;;;4930571;28;98278;-79
2023/07/21 00:04:48;;;;;;;2.15;1.98;;;;;;;;;;4933043;28;99453;-79
2023/07/21 00:07:14;;;;;;;1.85;1.75;;;;;;;;;;4929942;28;98297;-79
2023/07/21 00:09:42;;;;;;;4.43;2.10;;;;;;;;;;4931286;28;99450;-79
2023/07/21 00:12:08;;;;;;;2.00;1.90;;;;;;;;;;4930297;28;99342;-79
2023/07/21 00:14:35;;;;;;;3.60;2.47;;;;;;;;;;4930450;28;98369;-78
2023/07/21 00:17:04;;;;;;;2.55;2.28;;;;;;;;;;4931217;28;98692;-78
2023/07/21 00:19:31;;;;;;;4.20;2.15;;;;;;;;;;4927694;28;100163;-79
2023/07/21 00:21:57;;;;;;;2.50;2.25;;;;;;;;;;4930601;28;98147;-78
2023/07/21 00:24:24;;;;;;;2.25;2.05;;;;;;;;;;4930127;28;98891;-79
2023/07/21 00:26:53;;;;;;;3.60;1.88;;;;;;;;;;4933993;28;98984;-80
2023/07/21 00:29:19;;;;;;;2.97;1.75;;;;;;;;;;4929929;28;98970;-79
2023/07/21 00:31:49;;;;;;;3.65;1.83;;;;;;;;;;4928992;28;99136;-79
2023/07/21 00:34:16;;;;;;;3.20;1.70;;;;;;;;;;4930344;28;98014;-80
2023/07/21 00:36:45;;;;;;;5.28;1.75;;;;;;;;;;4930934;28;98691;-79
2023/07/21 00:39:13;;;;;;;3.15;2.30;;;;;;;;;;4927584;28;98981;-80
2023/07/21 00:41:40;;;;;;;2.70;1.85;;;;;;;;;;4930405;28;98757;-79
2023/07/21 00:44:09;;;;;;;2.58;2.38;;;;;;;;;;4928489;28;100612;-79
2023/07/21 00:46:36;;;;;;;2.03;1.80;;;;;;;;;;4913635;28;98638;-79
2023/07/21 00:49:02;;;;;;;3.40;2.05;;;;;;;;;;4913641;28;98207;-79
2023/07/21 00:51:29;;;;;;;2.47;1.70;;;;;;;;;;4910830;28;98806;-80
2023/07/21 00:53:55;;;;;;;1.88;1.77;;;;;;;;;;4909270;28;98475;-79
2023/07/21 00:56:24;;;;;;;4.18;2.50;;;;;;;;;;4910786;28;98289;-80
2023/07/21 00:58:51;;;;;;;2.13;1.83;;;;;;;;;;4927395;28;100118;-79
2023/07/21 01:01:18;;;;;;;3.85;2.13;;;;;;;;;;4928246;28;98263;-79
2023/07/21 01:03:44;;;;;;;2.03;1.70;;;;;;;;;;4931361;28;98749;-79
2023/07/21 01:06:11;;;;;;;2.28;1.95;;;;;;;;;;4937957;28;100973;-79
2023/07/21 01:08:38;;;;;;;2.05;1.67;;;;;;;;;;4934808;28;98265;-78
2023/07/21 01:11:08;;;;;;;1.80;1.70;;;;;;;;;;4937705;28;98367;-78
2023/07/21 01:13:34;;;;;;;2.10;1.90;;;;;;;;;;4928513;28;98168;-78
2023/07/21 01:16:01;;;;;;;2.10;1.80;;;;;;;;;;4928734;28;98889;-79
2023/07/21 01:18:29;;;;;;;2.17;2.00;;;;;;;;;;4929559;28;100343;-79
2023/07/21 01:20:56;;;;;;;3.22;1.88;;;;;;;;;;4930131;28;98314;-79
2023/07/21 01:23:30;;;;;;;2.28;2.10;;;;;;;;;;4927681;28;100471;-78
2023/07/21 01:25:57;;;;;;;2.45;1.67;;;;;;;;;;4930241;28;98888;-78
2023/07/21 01:28:24;;;;;;;6.20;2.05;;;;;;;;;;4928747;28;98272;-78
2023/07/21 01:30:53;;;;;;;2.25;2.13;;;;;;;;;;4927825;28;99825;-79
2023/07/21 01:33:20;;;;;;;2.05;1.95;;;;;;;;;;4935969;28;101803;-78
2023/07/21 01:35:48;;;;;;;2.20;2.05;;;;;;;;;;4932324;28;98267;-78
2023/07/21 01:38:19;;;;;;;2.33;2.10;;;;;;;;;;4932585;28;98980;-78
2023/07/21 01:40:46;;;;;;;2.08;1.95;;;;;;;;;;4932057;28;98172;-79
2023/07/21 01:43:14;;;;;;;2.30;2.10;;;;;;;;;;4932196;28;98452;-79
2023/07/21 01:45:41;;;;;;;2.78;2.58;;;;;;;;;;4931597;28;100907;-78
2023/07/21 01:48:09;;;;;;;4.68;2.45;;;;;;;;;;4931324;28;98371;-78
2023/07/21 01:50:37;;;;;;;2.88;2.78;;;;;;;;;;4932883;28;98673;-78
2023/07/21 01:53:05;;;;;;;3.60;3.30;;;;;;;;;;4935787;28;98720;-78
2023/07/21 01:55:37;;;;;;;2.67;2.58;;;;;;;;;;4932656;28;99369;-78
2023/07/21 01:58:06;;;;;;;3.58;3.08;;;;;;;;;;4930411;28;100217;-78
2023/07/21 02:00:34;;;;;;;7.63;2.92;;;;;;;;;;4931642;28;98391;-79
2023/07/21 02:03:17;;;;;;;3.60;3.20;;;;;;;;;;4931870;28;99844;-79
2023/07/21 02:05:43;;;;;;;3.33;3.00;;;;;;;;;;4932731;28;99022;-79
2023/07/21 02:08:10;;;;;;;2.95;2.75;;;;;;;;;;4932074;28;98298;-79
2023/07/21 02:10:37;;;;;;;3.50;3.03;;;;;;;;;;4930709;28;100641;-77
2023/07/21 02:13:11;;;;;;;2.85;2.53;;;;;;;;;;4931250;28;99940;-79
2023/07/21 02:15:38;;;;;;;5.13;2.80;;;;;;;;;;4934887;28;98278;-80
2023/07/21 02:18:05;;;;;;;3.95;3.50;;;;;;;;;;4932020;28;101723;-78
2023/07/21 02:20:31;;;;;;;3.95;3.70;;;;;;;;;;4931259;28;98311;-78
2023/07/21 02:22:59;;;;;;;3.75;3.30;;;;;;;;;;4932470;28;98308;-78
2023/07/21 02:25:25;;;;;;;4.60;2.90;;;;;;;;;;4931333;28;101806;-78
2023/07/21 02:27:52;;;;;;;4.32;2.80;;;;;;;;;;4934975;28;98215;-79
2023/07/21 02:30:18;;;;;;;3.75;3.45;;;;;;;;;;4934806;28;99366;-80
2023/07/21 02:32:45;;;;;;;3.05;2.85;;;;;;;;;;4931718;28;99341;-78
2023/07/21 02:35:12;;;;;;;3.20;3.00;;;;;;;;;;4934938;28;98150;-79
2023/07/21 02:37:38;;;;;;;5.28;3.15;;;;;;;;;;4936839;28;98390;-79
2023/07/21 02:40:06;;;;;;;3.60;3.30;;;;;;;;;;4946815;28;98642;-79
2023/07/21 02:42:34;;;;;;;3.13;2.92;;;;;;;;;;4945380;28;98408;-79
2023/07/21 02:45:00;;;;;;;3.58;3.38;;;;;;;;;;4949308;28;100151;-79
2023/07/21 02:47:27;;;;;;;2.70;2.50;;;;;;;;;;4910827;28;98375;-78
2023/07/21 02:49:53;;;;;;;5.65;2.67;;;;;;;;;;4912558;28;98613;-78
2023/07/21 02:52:20;;;;;;;2.47;2.38;;;;;;;;;;4912450;28;98756;-79
2023/07/21 02:54:51;;;;;;;3.03;2.92;;;;;;;;;;4911974;28;98408;-78
2023/07/21 02:57:18;;;;;;;2.85;2.63;;;;;;;;;;4911454;28;100819;-79
2023/07/21 02:59:45;;;;;;;6.47;2.70;;;;;;;;;;4930115;28;101233;-78
2023/07/21 03:02:17;;;;;;;2.72;2.53;;;;;;;;;;4929921;28;99501;-79
2023/07/21 03:04:49;;;;;;;4.00;2.53;;;;;;;;;;4930611;28;101501;-79
2023/07/21 03:07:16;;;;;;;2.72;2.63;;;;;;;;;;4929328;28;99312;-79
2023/07/21 03:09:48;;;;;;;3.47;3.28;;;;;;;;;;4930563;28;99459;-79
2023/07/21 03:12:21;;;;;;;4.70;2.90;;;;;;;;;;4929275;28;100879;-79
2023/07/21 03:15:06;;;;;;;5.00;2.97;;;;;;;;;;4946332;28;98830;-79
2023/07/21 03:17:47;;;;;;;2.80;2.67;;;;;;;;;;4930524;28;101034;-78
2023/07/21 03:20:15;;;;;;;2.53;2.42;;;;;;;;;;4929955;28;101275;-79
2023/07/21 03:22:42;;;;;;;2.78;2.50;;;;;;;;;;4933987;28;98225;-79
2023/07/21 03:25:11;;;;;;;2.67;2.58;;;;;;;;;;4929697;28;99913;-78
2023/07/21 03:27:40;;;;;;;3.30;2.72;;;;;;;;;;4926568;28;98329;-77
2023/07/21 03:30:12;;;;;;;3.73;2.63;;;;;;;;;;4926945;28;100825;-79
2023/07/21 03:32:50;;;;;;;3.88;3.03;;;;;;;;;;4919619;28;99052;-80
2023/07/21 03:35:18;;;;;;;3.08;2.88;;;;;;;;;;4930591;28;98157;-80
2023/07/21 03:37:47;;;;;;;3.10;2.97;;;;;;;;;;4929508;28;100831;-78
2023/07/21 03:40:17;;;;;;;7.55;2.80;;;;;;;;;;4929637;28;99020;-79
2023/07/21 03:42:44;;;;;;;2.90;2.50;;;;;;;;;;4928962;28;98394;-79
2023/07/21 03:45:12;;;;;;;2.80;2.70;;;;;;;;;;4932749;28;99468;-79
2023/07/21 03:47:38;;;;;;;3.08;2.88;;;;;;;;;;4931233;28;98133;-79
2023/07/21 03:50:05;;;;;;;3.22;2.92;;;;;;;;;;4930958;28;99523;-80
2023/07/21 03:52:33;;;;;;;2.97;2.78;;;;;;;;;;4929336;28;98815;-78
2023/07/21 03:55:00;;;;;;;4.63;2.78;;;;;;;;;;4929814;28;98296;-80
2023/07/21 03:57:28;;;;;;;3.00;2.80;;;;;;;;;;4928648;28;101083;-78
2023/07/21 03:59:54;;;;;;;3.70;2.58;;;;;;;;;;4930700;28;99918;-79
2023/07/21 04:02:20;;;;;;;3.20;3.00;;;;;;;;;;4929850;28;98376;-80
2023/07/21 04:04:48;;;;;;;2.95;2.78;;;;;;;;;;4932156;28;100785;-78
2023/07/21 04:07:15;;;;;;;3.05;2.70;;;;;;;;;;4929184;28;98301;-79
2023/07/21 04:09:42;;;;;;;2.88;2.60;;;;;;;;;;4929417;28;100248;-79
2023/07/21 04:12:08;;;;;;;3.03;2.72;;;;;;;;;;4928463;28;99930;-78
2023/07/21 04:14:35;;;;;;;3.47;2.95;;;;;;;;;;4929170;28;98416;-78
2023/07/21 04:17:02;;;;;;;2.58;2.38;;;;;;;;;;4930297;28;98611;-78
2023/07/21 04:19:30;;;;;;;4.20;2.17;;;;;;;;;;4930361;28;98857;-79
2023/07/21 04:21:56;;;;;;;2.63;2.53;;;;;;;;;;4929592;28;98247;-79
2023/07/21 04:24:23;;;;;;;2.80;2.60;;;;;;;;;;4925434;28;99401;-80
2023/07/21 04:26:50;;;;;;;2.97;2.78;;;;;;;;;;4922630;28;99474;-80
2023/07/21 04:29:17;;;;;;;3.15;2.90;;;;;;;;;;4927095;28;98553;-81
2023/07/21 04:32:00;;;;;;;3.00;2.60;;;;;;;;;;4928208;28;101358;-79
2023/07/21 04:34:27;;;;;;;3.58;2.60;;;;;;;;;;4930052;28;98191;-79
2023/07/21 04:36:53;;;;;;;3.03;2.78;;;;;;;;;;4928656;28;99487;-80
2023/07/21 04:39:32;;;;;;;2.55;2.45;;;;;;;;;;4928540;28;100831;-81
2023/07/21 04:41:59;;;;;;;12.20;3.75;;;;;;;;;;4929695;28;98256;-80
2023/07/21 04:44:26;;;;;;;3.00;2.80;;;;;;;;;;4928792;28;100623;-79
2023/07/21 04:46:53;;;;;;;2.60;2.40;;;;;;;;;;4921866;28;99859;-79
2023/07/21 04:49:23;;;;;;;4.82;2.85;;;;;;;;;;4912809;28;98380;-80
2023/07/21 04:51:51;;;;;;;3.17;2.42;;;;;;;;;;4925115;28;101654;-79
2023/07/21 04:54:17;;;;;;;2.45;2.35;;;;;;;;;;4910165;28;98303;-79
2023/07/21 04:56:44;;;;;;;3.10;2.88;;;;;;;;;;4925791;28;100344;-81
2023/07/21 04:59:13;;;;;;;3.65;3.45;;;;;;;;;;4946789;28;100321;-81
2023/07/21 05:01:41;;;;;;;3.35;3.13;;;;;;;;;;4933870;28;98269;-80
2023/07/21 05:04:07;;;;;;;3.75;3.28;;;;;;;;;;4925150;28;101216;-81
2023/07/21 05:06:34;;;;;;;2.90;2.70;;;;;;;;;;4911285;28;101585;-81
2023/07/21 05:09:00;;;;;;;3.55;3.25;;;;;;;;;;4913643;28;98225;-80
2023/07/21 05:11:27;;;;;;;3.15;2.95;;;;;;;;;;4915878;28;101087;-78
2023/07/21 05:13:54;;;;;;;3.05;2.85;;;;;;;;;;4915483;28;98226;-79
2023/07/21 05:16:36;;;;;;;4.07;3.13;;;;;;;;;;4933014;28;98445;-80
2023/07/21 05:19:21;;;;;;;3.05;2.85;;;;;;;;;;4931480;28;98403;-81
2023/07/21 05:21:49;;;;;;;3.60;3.03;;;;;;;;;;4935921;28;98104;-81
2023/07/21 05:24:34;;;;;;;3.35;3.15;;;;;;;;;;4941816;28;98074;-82
2023/07/21 05:27:02;;;;;;;4.70;2.72;;;;;;;;;;4957010;28;97995;-80
2023/07/21 05:29:41;;;;;;;2.83;2.63;;;;;;;;;;4932439;28;97958;-82
2023/07/21 05:32:08;;;;;;;4.20;2.80;;;;;;;;;;4935561;28;98840;-81
2023/07/21 05:34:35;;;;;;;3.10;2.90;;;;;;;;;;4931217;28;101249;-80
2023/07/21 05:37:05;;;;;;;5.00;3.58;;;;;;;;;;4912769;28;98635;-80
2023/07/21 05:39:32;;;;;;;2.45;2.28;;;;;;;;;;4912557;28;99272;-81
2023/07/21 05:42:00;;;;;;;3.22;2.63;;;;;;;;;;4911295;28;98278;-81
2023/07/21 05:44:32;;;;;;;2.22;2.00;;;;;;;;;;4912542;28;100451;-81
2023/07/21 05:46:59;;;;;;;2.45;2.25;;;;;;;;;;4913744;28;98813;-81
2023/07/21 05:49:26;;;;;;;2.78;2.55;;;;;;;;;;4942224;28;99056;-80
2023/07/21 05:51:53;;;;;;;2.20;2.00;;;;;;;;;;4931679;28;99561;-81
2023/07/21 05:54:26;;;;;;;2.40;2.22;;;;;;;;;;4947814;28;101059;-79
2023/07/21 05:56:54;;;;;;;2.22;2.03;;;;;;;;;;4949629;28;98145;-80
2023/07/21 05:59:33;;;;;;;2.15;1.73;;;;;;;;;;4929593;28;101215;-80
2023/07/21 06:02:00;;;;;;;2.05;1.85;;;;;;;;;;4935310;28;98348;-81
2023/07/21 06:04:32;;;;;;;1.98;1.63;;;;;;;;;;4927375;28;100963;-81
2023/07/21 06:07:14;;;;;;;4.55;1.67;;;;;;;;;;4928912;28;100099;-80
2023/07/21 06:10:04;;;;;;;1.48;1.38;;;;;;;;;;4911883;28;98219;-80
2023/07/21 06:12:56;;;;;;;1.40;1.30;;;;;;;;;;4936668;28;99452;-80
2023/07/21 06:15:40;;;;;;;2.78;1.40;;;;;;;;;;4929090;28;98499;-80
2023/07/21 06:18:17;;;;;;;1.23;1.23;;;;;;;;;;4931307;28;99179;-80
2023/07/21 06:20:44;;;;;;;1.30;1.30;;;;;;;;;;4946633;28;101097;-81
2023/07/21 06:23:10;;;;;;;1.40;1.30;;;;;;;;;;4928307;28;98198;-80
2023/07/21 06:25:38;;;;;;;1.10;1.10;;;;;;;;;;4930592;28;99309;-81
2023/07/21 06:28:08;;;;;;;1.17;0.90;;;;;;;;;;4931271;28;100990;-81
2023/07/21 06:30:35;;;;;;;2.38;1.10;;;;;;;;;;4930508;28;98905;-80
2023/07/21 06:33:04;;;;;;;0.98;0.98;;;;;;;;;;4929115;28;100324;-81
2023/07/21 06:35:35;;;;;;;1.00;0.85;;;;;;;;;;4946380;28;101249;-81
2023/07/21 06:38:12;;;;;;;1.13;1.00;;;;;;;;;;4940841;28;100225;-81
2023/07/21 06:41:04;;;;;;;3.05;2.00;;;;;;;;;;4934323;28;98148;-82
2023/07/21 06:43:46;;;;;;;2.97;1.65;;;;;;;;;;4931036;28;99298;-82
2023/07/21 06:46:36;;;;;;;4.32;1.42;;;;;;;;;;4936572;28;98315;-82
2023/07/21 06:49:02;;;;;;;1.52;1.02;;;;;;;;;;4912013;28;98691;-81
2023/07/21 06:51:54;;;;;;;1.58;1.20;;;;;;;;;;4910259;28;99802;-81
2023/07/21 06:54:23;;;;;;;1.63;1.00;;;;;;;;;;4914452;28;98646;-81
2023/07/21 06:56:50;;;;;;;1.20;1.10;;;;;;;;;;4935657;28;98892;-81
2023/07/21 06:59:16;;;;;;;1.60;1.10;;;;;;;;;;4909300;28;98490;-81
2023/07/21 07:01:44;;;;;;;1.15;1.15;;;;;;;;;;4913020;28;98627;-81
2023/07/21 07:04:11;;;;;;;1.55;1.45;;;;;;;;;;4916000;28;98840;-81
2023/07/21 07:06:37;;;;;;;3.67;1.23;;;;;;;;;;4911641;28;98487;-82
2023/07/21 07:09:04;;;;;;;1.02;1.00;;;;;;;;;;4912519;28;98875;-81
2023/07/21 07:11:30;;;;;;;3.60;1.30;;;;;;;;;;4912309;28;98288;-79
2023/07/21 07:13:57;;;;;;;1.00;1.00;;;;;;;;;;4926914;28;98585;-79
2023/07/21 07:16:23;;;;;;;3.08;1.17;;;;;;;;;;4931501;28;98826;-81
2023/07/21 07:18:49;;;;;;;2.22;1.00;;;;;;;;;;4920978;28;99994;-81
2023/07/21 07:21:16;;;;;;;1.20;1.10;;;;;;;;;;4922894;28;100419;-80
2023/07/21 07:23:42;;;;;;;0.77;0.77;;;;;;;;;;4942721;28;101837;-80
2023/07/21 07:26:09;;;;;;;0.80;0.80;;;;;;;;;;4934773;28;98372;-80
2023/07/21 07:28:35;;;;;;;3.33;0.90;;;;;;;;;;4929995;28;98903;-81
2023/07/21 07:31:06;;;;;;;2.20;0.70;;;;;;;;;;4926952;28;98889;-80
2023/07/21 07:33:32;;;;;;;0.80;0.80;;;;;;;;;;4924071;28;98906;-81
2023/07/21 07:35:59;;;;;;;1.25;0.80;;;;;;;;;;4913767;28;99853;-80
2023/07/21 07:38:29;;;;;;;2.45;0.65;;;;;;;;;;4930350;28;98344;-81
2023/07/21 07:41:03;;;;;;;2.47;0.70;;;;;;;;;;4931451;28;98459;-81
2023/07/21 07:43:29;;;;;;;0.73;0.70;;;;;;;;;;4930237;28;99884;-80
2023/07/21 07:45:59;;;;;;;0.65;0.65;;;;;;;;;;4931627;28;98252;-80
2023/07/21 07:48:25;;;;;;;0.82;0.77;;;;;;;;;;4931022;28;99488;-81
2023/07/21 07:50:53;;;;;;;3.40;0.80;;;;;;;;;;4911946;28;98225;-81
2023/07/21 07:53:20;;;;;;;0.85;0.70;;;;;;;;;;4912215;28;98705;-80
2023/07/21 07:55:46;;;;;;;1.08;0.65;;;;;;;;;;4910303;28;100352;-81
2023/07/21 07:58:13;;;;;;;1.85;0.90;;;;;;;;;;4914290;28;98271;-80
2023/07/21 08:00:41;;;;;;;1.35;0.90;;;;;;;;;;4918220;28;98739;-80
2023/07/21 08:03:11;;;;;;;0.80;0.80;;;;;;;;;;4929724;28;99989;-80
2023/07/21 08:05:42;;;;;;;1.40;0.98;;;;;;;;;;4930996;28;98097;-80
2023/07/21 08:08:09;;;;;;;1.45;0.90;;;;;;;;;;4930939;28;99687;-80
2023/07/21 08:10:41;;;;;;;8.43;1.00;;;;;;;;;;4933136;28;98114;-80
2023/07/21 08:13:07;;;;;;;1.10;1.00;;;;;;;;;;4929412;28;99423;-80
2023/07/21 08:15:34;;;;;;;1.20;1.10;;;;;;;;;;4929773;28;100491;-80
2023/07/21 08:18:00;;;;;;;5.10;0.90;;;;;;;;;;4929728;28;98265;-78
2023/07/21 08:20:27;;;;;;;2.65;1.13;;;;;;;;;;4931798;28;99253;-80
2023/07/21 08:22:53;;;;;;;0.82;0.80;;;;;;;;;;4931383;28;99139;-81
2023/07/21 08:25:20;;;;;;;10.32;0.98;;;;;;;;;;4930307;28;98831;-80
2023/07/21 08:27:46;;;;;;;0.73;0.73;;;;;;;;;;4930974;28;99394;-80
2023/07/21 08:30:15;;;;;;;0.75;0.75;;;;;;;;;;4932889;28;99877;-80
2023/07/21 08:32:41;;;;;;;0.85;0.70;;;;;;;;;;4931233;28;98784;-81
2023/07/21 08:35:08;;;;;;;0.65;0.65;;;;;;;;;;4930173;28;99330;-80
2023/07/21 08:37:35;;;;;;;0.75;0.52;;;;;;;;;;4929209;28;98657;-81
2023/07/21 08:40:03;;;;;;;2.63;0.77;;;;;;;;;;4929795;28;99641;-80
2023/07/21 08:42:30;;;;;;;0.90;0.80;;;;;;;;;;4930859;28;99185;-80
2023/07/21 08:44:57;;;;;;;1.13;0.65;;;;;;;;;;4929849;28;98632;-80
2023/07/21 08:47:24;;;;;;;0.80;0.80;;;;;;;;;;4931085;28;98647;-80
2023/07/21 08:49:50;;;;;;;4.05;0.80;;;;;;;;;;4917584;28;100089;-80
2023/07/21 08:52:17;;;;;;;0.77;0.77;;;;;;;;;;4932185;28;98219;-82
2023/07/21 08:54:43;;;;;;;0.57;0.50;;;;;;;;;;4930840;28;100056;-80
2023/07/21 08:57:10;;;;;;;0.55;0.55;;;;;;;;;;4930169;28;98266;-80
2023/07/21 08:59:37;;;;;;;0.80;0.80;;;;;;;;;;4930060;28;98798;-80
2023/07/21 09:02:04;;;;;;;1.20;1.10;;;;;;;;;;4929527;28;99042;-80
2023/07/21 09:04:31;;;;;;;2.33;0.77;;;;;;;;;;4930604;28;98243;-81
2023/07/21 09:07:01;;;;;;;0.68;0.68;;;;;;;;;;4929125;28;99599;-80
2023/07/21 09:09:28;;;;;;;0.60;0.60;;;;;;;;;;4929900;28;98972;-79
2023/07/21 09:12:03;;;;;;;1.13;1.00;;;;;;;;;;4930001;28;98881;-80
2023/07/21 09:14:39;;;;;;;1.65;0.70;;;;;;;;;;4931923;28;99415;-79
2023/07/21 09:17:07;;;;;;;0.85;0.70;;;;;;;;;;4930421;28;98235;-79
2023/07/21 09:19:38;;;;;;;1.08;0.80;;;;;;;;;;4929801;28;98583;-80
2023/07/21 09:22:05;;;;;;;0.90;0.90;;;;;;;;;;4930034;28;98953;-80
2023/07/21 09:24:34;;;;;;;1.88;1.08;;;;;;;;;;4929641;28;99414;-80
2023/07/21 09:27:11;;;;;;;1.17;1.00;;;;;;;;;;4928671;28;98667;-80
2023/07/21 09:29:38;;;;;;;2.67;1.00;;;;;;;;;;4930231;28;100236;-80
2023/07/21 09:32:10;;;;;;;0.98;0.85;;;;;;;;;;4930885;28;98235;-80
2023/07/21 09:34:51;;;;;;;0.77;0.77;;;;;;;;;;4930275;28;99533;-81
2023/07/21 09:37:18;;;;;;;1.05;1.05;;;;;;;;;;4934447;28;98999;-80
2023/07/21 09:39:44;;;;;;;0.77;0.75;;;;;;;;;;4932896;28;97965;-80
2023/07/21 09:42:12;;;;;;;3.15;0.70;;;;;;;;;;4931237;28;99043;-80
2023/07/21 09:44:38;;;;;;;1.13;0.80;;;;;;;;;;4930600;28;98182;-81
2023/07/21 09:47:05;;;;;;;6.68;0.88;;;;;;;;;;4929988;28;100242;-80
2023/07/21 09:49:32;;;;;;;1.05;0.73;;;;;;;;;;4929500;28;99214;-80
2023/07/21 09:51:59;;;;;;;0.50;0.50;;;;;;;;;;4932439;28;98316;-80
2023/07/21 09:54:28;;;;;;;2.38;0.60;;;;;;;;;;4933554;28;98555;-80
2023/07/21 09:56:55;;;;;;;0.60;0.60;;;;;;;;;;4933268;28;99792;-80
2023/07/21 09:59:22;;;;;;;0.43;0.43;;;;;;;;;;4936167;28;98408;-80
2023/07/21 10:01:49;;;;;;;0.60;0.60;;;;;;;;;;4931809;28;100105;-80
2023/07/21 10:04:16;;;;;;;0.55;0.55;;;;;;;;;;4932520;28;98358;-80
2023/07/21 10:06:42;;;;;;;0.60;0.60;;;;;;;;;;4932559;28;99415;-80
2023/07/21 10:09:09;;;;;;;0.40;0.40;;;;;;;;;;4932148;28;98987;-80
2023/07/21 10:11:36;;;;;;;1.25;0.77;;;;;;;;;;4926941;28;98275;-80
2023/07/21 10:14:02;;;;;;;2.55;0.45;;;;;;;;;;4932334;28;99805;-80
2023/07/21 10:16:30;;;;;;;0.70;0.50;;;;;;;;;;4930118;28;98994;-80
2023/07/21 10:19:07;;;;;;;0.68;0.65;;;;;;;;;;4936000;28;98230;-80
2023/07/21 10:21:38;;;;;;;;;;;;;;;;;;4931645;28;99274;-80
2023/07/21 10:24:05;;;;;;;0.60;0.57;;;;;;;;;;4931830;28;119371;-79
2023/07/21 10:26:36;;;;;;;0.52;0.52;;;;;;;;;;4937195;28;99674;-78
2023/07/21 10:29:16;;;;;;;2.67;0.70;;;;;;;;;;4937386;28;99331;-78
2023/07/21 10:31:52;;;;;;;0.70;0.60;;;;;;;;;;4933854;28;98502;-75
2023/07/21 10:34:24;;;;;;;0.95;0.80;;;;;;;;;;4932765;28;99587;-75
2023/07/21 10:36:52;;;;;;;1.20;0.80;;;;;;;;;;4930929;28;100025;-76
2023/07/21 10:39:21;;;;;;;0.57;0.57;;;;;;;;;;4931739;28;98303;-76
2023/07/21 10:41:58;;;;;;;2.88;0.73;;;;;;;;;;4933738;28;98434;-76
2023/07/21 10:44:35;;;;;;;1.75;0.90;;;;;;;;;;4931046;28;98570;-78
2023/07/21 10:47:05;;;;;;;1.20;0.73;;;;;;;;;;4935134;28;99613;-77
2023/07/21 10:49:33;;;;;;;0.98;0.70;;;;;;;;;;4929299;28;100627;-76
2023/07/21 10:52:18;;;;;;;2.40;0.90;;;;;;;;;;4915104;28;98251;-75
2023/07/21 10:54:46;;;;;;;1.00;0.50;;;;;;;;;;4947902;28;98677;-76
2023/07/21 10:57:16;;;;;;;0.63;0.63;;;;;;;;;;4934052;28;99504;-76
2023/07/21 10:59:42;;;;;;;2.72;0.60;;;;;;;;;;4935109;28;98304;-75
2023/07/21 11:02:09;;;;;;;1.38;0.80;;;;;;;;;;4937211;28;99341;-78
2023/07/21 11:04:38;;;;;;;0.77;0.77;;;;;;;;;;4945720;28;99977;-78
2023/07/21 11:07:06;;;;;;;0.77;0.60;;;;;;;;;;4938027;28;99982;-77
2023/07/21 11:09:37;;;;;;;0.75;0.75;;;;;;;;;;4940620;28;100380;-76
2023/07/21 11:12:03;;;;;;;0.82;0.68;;;;;;;;;;4939188;28;98169;-77
2023/07/21 11:14:32;;;;;;;0.65;0.65;;;;;;;;;;4918047;28;98406;-78
2023/07/21 11:17:03;;;;;;;1.20;1.10;;;;;;;;;;4919494;28;99102;-81
2023/07/21 11:19:33;;;;;;;1.73;0.70;;;;;;;;;;4919737;28;98349;-80
2023/07/21 11:22:00;;;;;;;0.65;0.63;;;;;;;;;;4923273;28;98440;-81
2023/07/21 11:24:30;;;;;;;1.20;0.75;;;;;;;;;;4940391;28;98934;-78
2023/07/21 11:27:05;;;;;;;1.17;0.80;;;;;;;;;;4941942;28;97879;-78
2023/07/21 11:29:42;;;;;;;1.55;1.05;;;;;;;;;;4933764;28;100076;-78
2023/07/21 11:32:17;;;;;;;2.15;1.15;;;;;;;;;;4935713;28;99168;-78
2023/07/21 11:34:47;;;;;;;0.70;0.70;;;;;;;;;;4937199;28;98750;-78
2023/07/21 11:37:22;;;;;;;0.75;0.75;;;;;;;;;;4931369;28;99367;-79
2023/07/21 11:39:56;;;;;;;0.95;0.95;;;;;;;;;;4934538;28;98392;-79
2023/07/21 11:42:23;;;;;;;0.80;0.80;;;;;;;;;;4913785;28;99364;-79
2023/07/21 11:44:52;;;;;;;1.00;1.00;;;;;;;;;;4932607;28;99085;-78
2023/07/21 11:47:20;;;;;;;3.35;0.90;;;;;;;;;;4927766;28;98489;-80
2023/07/21 11:49:52;;;;;;;1.98;0.98;;;;;;;;;;4936758;28;99364;-80
2023/07/21 11:52:24;;;;;;;1.30;1.20;;;;;;;;;;4926354;28;99948;-80
2023/07/21 11:54:50;;;;;;;9.00;1.10;;;;;;;;;;4923826;28;99169;-80
2023/07/21 11:57:18;;;;;;;0.70;0.70;;;;;;;;;;4922247;28;100021;-79
2023/07/21 11:59:47;;;;;;;0.60;0.60;;;;;;;;;;4930734;28;100401;-76
2023/07/21 12:02:18;;;;;;;0.75;0.75;;;;;;;;;;4919033;28;98395;-78
2023/07/21 12:04:45;;;;;;;0.80;0.80;;;;;;;;;;4925758;28;99124;-79
2023/07/21 12:07:13;;;;;;;1.13;1.00;;;;;;;;;;4888804;28;98326;-82
2023/07/21 12:09:39;;;;;;;0.85;0.85;;;;;;;;;;4927180;28;99882;-79
2023/07/21 12:12:07;;;;;;;0.70;0.70;;;;;;;;;;4927393;28;99880;-80
2023/07/21 12:14:34;;;;;;;1.02;0.90;;;;;;;;;;4911893;28;99579;-81
2023/07/21 12:17:00;;;;;;;0.88;0.88;;;;;;;;;;4910807;28;99277;-79
2023/07/21 12:19:27;;;;;;;2.22;1.02;;;;;;;;;;4924954;28;98464;-78
2023/07/21 12:21:54;;;;;;;1.00;1.00;;;;;;;;;;4928932;28;99815;-79
2023/07/21 12:24:21;;;;;;;1.45;1.02;;;;;;;;;;4929738;28;99524;-78
2023/07/21 12:26:49;;;;;;;2.97;0.73;;;;;;;;;;4926150;28;99760;-79
2023/07/21 12:29:16;;;;;;;6.07;0.98;;;;;;;;;;4917898;28;99546;-80
2023/07/21 12:32:02;;;;;;;2.53;1.48;;;;;;;;;;4914497;28;100202;-78
2023/07/21 12:34:29;;;;;;;1.13;1.08;;;;;;;;;;4917857;28;99444;-78
2023/07/21 12:36:56;;;;;;;1.00;1.00;;;;;;;;;;4911131;28;98996;-80
2023/07/21 12:39:23;;;;;;;1.15;1.15;;;;;;;;;;4917842;28;98233;-81
2023/07/21 12:41:49;;;;;;;2.45;0.90;;;;;;;;;;4927720;28;99466;-80
2023/07/21 12:44:16;;;;;;;1.30;1.00;;;;;;;;;;4916886;28;99973;-81
2023/07/21 12:46:44;;;;;;;0.95;0.95;;;;;;;;;;4910974;28;97945;-81
2023/07/21 12:49:11;;;;;;;1.33;0.90;;;;;;;;;;4914820;28;99483;-81
2023/07/21 12:51:38;;;;;;;5.43;0.80;;;;;;;;;;4912225;28;99736;-81
2023/07/21 12:54:04;;;;;;;0.80;0.80;;;;;;;;;;4914395;28;98803;-80
2023/07/21 12:56:31;;;;;;;3.65;0.90;;;;;;;;;;4910949;28;99956;-81
2023/07/21 12:58:58;;;;;;;0.77;0.77;;;;;;;;;;4910262;28;98234;-81
2023/07/21 13:01:24;;;;;;;2.95;0.98;;;;;;;;;;4909682;28;99844;-79
2023/07/21 13:03:51;;;;;;;0.65;0.65;;;;;;;;;;4928108;28;100132;-80
2023/07/21 13:06:18;;;;;;;0.80;0.80;;;;;;;;;;4924591;28;98300;-81
2023/07/21 13:08:44;;;;;;;1.20;0.90;;;;;;;;;;4910821;28;99304;-80
2023/07/21 13:11:11;;;;;;;1.48;0.85;;;;;;;;;;4919759;28;100278;-81
2023/07/21 13:13:38;;;;;;;4.20;0.95;;;;;;;;;;4923409;28;99744;-80
2023/07/21 13:16:04;;;;;;;2.15;1.00;;;;;;;;;;4923995;28;99588;-80
2023/07/21 13:18:31;;;;;;;1.00;0.90;;;;;;;;;;4915603;28;99230;-80
2023/07/21 13:20:57;;;;;;;2.50;1.13;;;;;;;;;;4930464;28;99680;-81
2023/07/21 13:23:24;;;;;;;1.60;0.98;;;;;;;;;;4930108;28;99053;-80
2023/07/21 13:25:51;;;;;;;3.00;0.98;;;;;;;;;;4929862;28;98260;-80
2023/07/21 13:28:17;;;;;;;4.72;1.20;;;;;;;;;;4933387;28;98483;-80
2023/07/21 13:30:44;;;;;;;1.02;1.02;;;;;;;;;;4926446;28;99910;-80
2023/07/21 13:33:13;;;;;;;2.35;1.08;;;;;;;;;;4927626;28;98418;-79
2023/07/21 13:35:39;;;;;;;4.13;1.73;;;;;;;;;;4930897;28;99482;-80
2023/07/21 13:38:06;;;;;;;1.30;1.17;;;;;;;;;;4917062;28;99897;-80
2023/07/21 13:40:32;;;;;;;1.20;1.00;;;;;;;;;;4928687;28;99366;-77
2023/07/21 13:42:58;;;;;;;3.67;1.40;;;;;;;;;;4920197;28;99252;-78
2023/07/21 13:45:25;;;;;;;1.75;1.38;;;;;;;;;;4913449;28;98212;-78
2023/07/21 13:47:52;;;;;;;3.10;1.25;;;;;;;;;;4912414;28;100175;-79
2023/07/21 13:50:18;;;;;;;0.98;0.98;;;;;;;;;;4913197;28;100097;-80
2023/07/21 13:52:45;;;;;;;1.23;1.13;;;;;;;;;;4919814;28;98405;-80
2023/07/21 13:55:13;;;;;;;2.78;1.60;;;;;;;;;;4930338;28;99376;-81
2023/07/21 13:57:40;;;;;;;2.50;1.73;;;;;;;;;;4932524;28;100033;-80
2023/07/21 14:00:07;;;;;;;4.32;2.05;;;;;;;;;;4936616;28;98351;-81
2023/07/21 14:02:37;;;;;;;3.00;1.80;;;;;;;;;;4928110;28;98576;-80
2023/07/21 14:05:04;;;;;;;3.13;2.55;;;;;;;;;;4932174;28;99209;-80
2023/07/21 14:07:30;;;;;;;3.10;2.80;;;;;;;;;;4931736;28;99614;-80
2023/07/21 14:09:57;;;;;;;2.67;2.47;;;;;;;;;;4929909;28;99418;-82
2023/07/21 14:12:24;;;;;;;4.75;2.38;;;;;;;;;;4930306;28;98364;-80
2023/07/21 14:14:51;;;;;;;4.32;2.53;;;;;;;;;;4930920;28;99413;-78
2023/07/21 14:17:18;;;;;;;4.40;3.00;;;;;;;;;;4928278;28;100647;-81
2023/07/21 14:19:44;;;;;;;12.50;3.78;;;;;;;;;;4933019;28;98223;-80
2023/07/21 14:22:11;;;;;;;4.47;3.28;;;;;;;;;;4935018;28;98590;-82
2023/07/21 14:24:37;;;;;;;4.05;3.20;;;;;;;;;;4930212;28;98278;-79
2023/07/21 14:27:04;;;;;;;6.25;3.53;;;;;;;;;;4931992;28;98472;-81
2023/07/21 14:29:32;;;;;;;3.78;3.15;;;;;;;;;;4912495;28;99902;-78
2023/07/21 14:31:58;;;;;;;3.95;3.65;;;;;;;;;;4925873;28;98234;-80
2023/07/21 14:34:25;;;;;;;3.50;3.15;;;;;;;;;;4932101;28;99559;-80
2023/07/21 14:36:51;;;;;;;7.00;3.72;;;;;;;;;;4930327;28;99980;-81
2023/07/21 14:39:18;;;;;;;4.75;4.32;;;;;;;;;;4931533;28;98396;-79
2023/07/21 14:41:44;;;;;;;4.57;4.18;;;;;;;;;;4933574;28;98593;-81
2023/07/21 14:44:11;;;;;;;10.55;4.35;;;;;;;;;;4928256;28;98482;-81
2023/07/21 14:46:38;;;;;;;4.85;3.95;;;;;;;;;;4912561;28;98709;-81
2023/07/21 14:49:05;;;;;;;4.30;3.60;;;;;;;;;;4916528;28;99951;-80
2023/07/21 14:51:32;;;;;;;4.10;3.80;;;;;;;;;;4923393;28;98297;-78